Time;durP1;ratioP1;P1;durP2;ratioP2;P2;SDS_P1;SDS_P2;PMS_P1;PMS_P2;Temp;Humidity;BMP_temperature;BMP_pressure;BME280_temperature;BME280_humidity;BME280_pressure;Samples;Min_cycle;Max_cycle;Signal;HPM_P1;HPM_P2
2022/06/21 00:01:13;;;;;;;8.18;4.32;;;;;;;11.15;100.00;101249.84;5010490;28;20176;-46
2022/06/21 00:03:39;;;;;;;8.57;4.00;;;;;;;11.11;100.00;101245.53;5010309;28;20686;-48
2022/06/21 00:06:05;;;;;;;6.75;4.22;;;;;;;11.16;100.00;101234.63;5010969;28;20340;-46
2022/06/21 00:08:33;;;;;;;8.88;4.50;;;;;;;10.98;100.00;101245.06;5011042;28;20642;-46
2022/06/21 00:11:00;;;;;;;7.25;3.75;;;;;;;11.03;100.00;101231.50;5010697;28;20176;-46
2022/06/21 00:13:30;;;;;;;8.70;3.60;;;;;;;11.07;100.00;101241.19;5009844;28;20195;-46
2022/06/21 00:15:59;;;;;;;6.03;3.83;;;;;;;10.95;100.00;101241.59;5010547;28;20561;-46
2022/06/21 00:18:28;;;;;;;10.85;3.83;;;;;;;10.95;100.00;101245.13;5010783;28;20656;-46
2022/06/21 00:20:53;;;;;;;7.53;3.70;;;;;;;11.03;100.00;101250.25;5011187;28;20516;-48
2022/06/21 00:23:22;;;;;;;7.05;4.25;;;;;;;11.02;100.00;101248.50;5009906;28;20195;-46
2022/06/21 00:25:48;;;;;;;6.60;4.00;;;;;;;10.92;100.00;101251.47;5010250;28;20291;-45
2022/06/21 00:28:14;;;;;;;7.80;3.85;;;;;;;10.96;100.00;101244.22;5009248;28;20188;-45
2022/06/21 00:30:40;;;;;;;7.63;3.67;;;;;;;10.87;100.00;101247.22;5010336;28;20229;-46
2022/06/21 00:33:15;;;;;;;7.70;4.28;;;;;;;10.96;100.00;101251.41;5010063;28;20189;-47
2022/06/21 00:35:43;;;;;;;5.85;3.70;;;;;;;11.01;100.00;101250.31;5010067;28;20367;-46
2022/06/21 00:38:13;;;;;;;6.47;4.13;;;;;;;10.96;100.00;101254.94;5010560;28;20231;-47
2022/06/21 00:40:38;;;;;;;9.88;3.80;;;;;;;10.95;100.00;101257.66;5010521;28;20602;-47
2022/06/21 00:43:04;;;;;;;7.28;4.78;;;;;;;10.92;100.00;101247.94;5009693;28;20216;-46
2022/06/21 00:45:39;;;;;;;6.32;4.55;;;;;;;10.97;100.00;101251.31;5025357;28;20228;-47
2022/06/21 00:48:14;;;;;;;10.38;4.32;;;;;;;10.89;100.00;101248.03;5009738;28;20176;-47
2022/06/21 00:50:46;;;;;;;8.75;3.95;;;;;;;10.86;100.00;101253.50;5010371;28;20183;-45
2022/06/21 00:53:29;;;;;;;7.72;3.88;;;;;;;10.88;100.00;101248.97;5009726;28;20180;-47
2022/06/21 00:56:04;;;;;;;8.15;4.32;;;;;;;10.79;100.00;101238.53;5009221;28;20675;-48
2022/06/21 00:58:31;;;;;;;9.70;4.38;;;;;;;10.81;100.00;101234.00;5010250;28;20168;-47
2022/06/21 01:01:14;;;;;;;6.47;3.70;;;;;;;10.84;100.00;101233.91;5009439;28;20169;-47
2022/06/21 01:03:45;;;;;;;8.27;3.90;;;;;;;10.77;100.00;101246.63;5009391;28;20196;-46
2022/06/21 01:06:17;;;;;;;11.27;4.53;;;;;;;10.77;100.00;101257.34;5008678;28;20205;-45
2022/06/21 01:08:49;;;;;;;7.95;4.45;;;;;;;10.65;100.00;101249.72;5009887;28;20242;-47
2022/06/21 01:11:20;;;;;;;8.15;4.10;;;;;;;10.82;100.00;101258.09;5010193;28;20187;-47
2022/06/21 01:13:50;;;;;;;9.15;4.05;;;;;;;10.81;100.00;101244.72;5023127;28;20179;-45
2022/06/21 01:16:16;;;;;;;7.30;4.43;;;;;;;10.78;100.00;101255.53;5009899;28;20283;-48
2022/06/21 01:18:43;;;;;;;6.93;3.65;;;;;;;10.82;100.00;101247.38;5009679;28;20165;-46
2022/06/21 01:21:11;;;;;;;11.75;4.28;;;;;;;10.71;100.00;101261.13;5009771;28;20216;-48
2022/06/21 01:24:02;;;;;;;7.63;3.65;;;;;;;10.82;100.00;101246.47;5009327;28;20208;-48
2022/06/21 01:26:43;;;;;;;9.63;4.97;;;;;;;10.70;100.00;101245.94;5009602;28;20212;-46
2022/06/21 01:29:15;;;;;;;8.20;4.07;;;;;;;10.70;100.00;101253.13;5009995;28;20181;-47
2022/06/21 01:31:42;;;;;;;9.45;4.25;;;;;;;10.80;100.00;101241.19;5009844;28;20212;-47
2022/06/21 01:34:33;;;;;;;10.10;4.13;;;;;;;10.76;100.00;101249.34;5009452;28;20307;-46
2022/06/21 01:37:12;;;;;;;10.90;4.60;;;;;;;10.71;100.00;101246.81;5006743;28;20208;-47
2022/06/21 01:39:51;;;;;;;12.50;3.95;;;;;;;10.67;100.00;101232.66;5010049;28;20639;-46
2022/06/21 01:42:38;;;;;;;8.18;4.10;;;;;;;10.65;100.00;101245.22;5009832;28;20271;-47
2022/06/21 01:45:07;;;;;;;12.55;4.18;;;;;;;10.64;100.00;101237.22;5008726;28;20193;-48
2022/06/21 01:47:50;;;;;;;15.90;4.60;;;;;;;10.66;100.00;101236.25;5009745;28;20173;-46
2022/06/21 01:50:19;;;;;;;10.80;3.58;;;;;;;10.72;100.00;101228.00;5009455;28;20527;-47
2022/06/21 01:52:48;;;;;;;14.60;4.13;;;;;;;10.62;100.00;101225.69;5003425;28;20204;-48
2022/06/21 01:55:23;;;;;;;11.63;3.92;;;;;;;10.67;100.00;101226.41;5005595;28;20220;-45
2022/06/21 01:57:51;;;;;;;12.77;4.47;;;;;;;10.64;100.00;101230.06;5009624;28;20192;-47
2022/06/21 02:00:17;;;;;;;13.52;3.88;;;;;;;10.64;100.00;101226.50;5009600;28;20279;-48
2022/06/21 02:02:47;;;;;;;18.00;4.55;;;;;;;10.59;100.00;101229.34;5009332;28;20244;-48
2022/06/21 02:05:24;;;;;;;10.95;4.28;;;;;;;10.58;100.00;101234.72;5008816;28;20216;-47
2022/06/21 02:07:56;;;;;;;12.32;4.43;;;;;;;10.61;100.00;101224.81;5009088;28;20244;-46
2022/06/21 02:10:34;;;;;;;12.73;4.40;;;;;;;10.70;100.00;101221.81;5003075;28;20192;-46
2022/06/21 02:13:05;;;;;;;10.13;3.88;;;;;;;10.67;100.00;101221.03;5006913;28;20181;-47
2022/06/21 02:15:44;;;;;;;11.63;4.85;;;;;;;10.64;100.00;101222.03;5009675;28;20305;-48
2022/06/21 02:18:12;;;;;;;12.30;4.18;;;;;;;10.65;100.00;101222.91;5009129;28;20177;-47
2022/06/21 02:20:45;;;;;;;14.90;3.88;;;;;;;10.58;100.00;101234.72;5009032;28;20268;-45
2022/06/21 02:23:16;;;;;;;20.02;4.75;;;;;;;10.63;100.00;101231.00;5008640;28;20179;-46
2022/06/21 02:25:43;;;;;;;12.63;4.75;;;;;;;10.57;100.00;101241.03;5012363;28;20220;-46
2022/06/21 02:28:12;;;;;;;17.23;4.70;;;;;;;10.55;100.00;101232.16;5012755;28;20412;-47
2022/06/21 02:30:39;;;;;;;16.80;4.55;;;;;;;10.59;100.00;101229.34;5012069;28;20165;-47
2022/06/21 02:33:09;;;;;;;18.63;4.72;;;;;;;10.56;100.00;101239.25;5011994;28;20189;-46
2022/06/21 02:35:44;;;;;;;15.73;4.50;;;;;;;10.55;100.00;101233.03;5012177;28;20571;-48
2022/06/21 02:38:18;;;;;;;19.27;5.20;;;;;;;10.53;100.00;101229.53;5012023;28;20242;-47
2022/06/21 02:40:52;;;;;;;12.60;4.80;;;;;;;10.54;100.00;101235.75;5009590;28;20195;-47
2022/06/21 02:43:24;;;;;;;20.35;5.55;;;;;;;10.59;100.00;101240.06;5012061;28;20168;-47
2022/06/21 02:46:13;;;;;;;15.88;4.82;;;;;;;10.56;100.00;101228.53;5012297;28;20207;-46
2022/06/21 02:49:14;;;;;;;15.60;4.63;;;;;;;10.48;100.00;101236.84;5011709;28;20185;-49
2022/06/21 02:51:47;;;;;;;14.18;4.78;;;;;;;10.46;100.00;101244.91;5012074;28;20195;-47
2022/06/21 02:54:47;;;;;;;15.05;5.63;;;;;;;10.47;100.00;101240.44;5011368;28;20172;-46
2022/06/21 02:57:20;;;;;;;21.60;5.53;;;;;;;10.40;100.00;101226.34;5011427;28;20247;-49
2022/06/21 02:59:48;;;;;;;25.45;5.75;;;;;;;10.55;100.00;101225.00;5011737;28;20572;-48
2022/06/21 03:02:19;;;;;;;18.63;5.07;;;;;;;10.46;100.00;101225.28;5011868;28;20593;-46
2022/06/21 03:04:50;;;;;;;14.32;5.05;;;;;;;10.49;100.00;101231.44;5010814;28;20201;-48
2022/06/21 03:07:20;;;;;;;15.63;4.97;;;;;;;10.52;100.00;101239.38;5010862;28;20195;-47
2022/06/21 03:09:46;;;;;;;20.10;4.78;;;;;;;10.44;100.00;101235.19;5010907;28;20280;-47
2022/06/21 03:12:18;;;;;;;17.05;5.03;;;;;;;10.49;100.00;101235.91;5011871;28;20180;-48
2022/06/21 03:14:46;;;;;;;17.38;4.82;;;;;;;10.51;100.00;101229.56;5011815;28;20655;-47
2022/06/21 03:17:16;;;;;;;20.42;4.60;;;;;;;10.43;100.00;101234.31;5010813;28;20224;-48
2022/06/21 03:19:52;;;;;;;17.80;5.28;;;;;;;10.50;100.00;101240.34;5011732;28;20219;-49
2022/06/21 03:22:29;;;;;;;15.40;4.82;;;;;;;10.44;100.00;101245.91;5011363;28;20168;-48
2022/06/21 03:24:58;;;;;;;18.50;4.93;;;;;;;10.45;100.00;101243.19;5011373;28;20215;-47
2022/06/21 03:27:31;;;;;;;20.77;5.43;;;;;;;10.50;100.00;101256.44;5011473;28;20169;-47
2022/06/21 03:29:57;;;;;;;28.30;5.70;;;;;;;10.49;100.00;101254.66;5011758;28;20211;-47
2022/06/21 03:32:25;;;;;;;17.88;5.53;;;;;;;10.46;100.00;101252.94;5011691;28;20513;-47
2022/06/21 03:34:50;;;;;;;20.65;5.55;;;;;;;10.50;100.00;101251.06;5010488;28;20612;-46
2022/06/21 03:37:18;;;;;;;18.40;5.60;;;;;;;10.56;100.00;101258.91;5010937;28;20187;-46
2022/06/21 03:42:33;;;;;;;16.35;5.70;;;;;;;10.68;100.00;101260.31;5011677;28;20199;-46
2022/06/21 03:45:25;;;;;;;23.80;5.22;;;;;;;10.70;100.00;101259.34;5010380;28;20295;-47
2022/06/21 03:48:15;;;;;;;20.67;6.35;;;;;;;10.69;100.00;101267.41;5010814;28;20216;-47
2022/06/21 03:50:54;;;;;;;19.13;4.88;;;;;;;10.64;100.00;101264.03;5010894;28;20208;-48
2022/06/21 03:53:31;;;;;;;19.75;5.28;;;;;;;10.70;100.00;101270.06;5005005;28;20544;-48
2022/06/21 03:56:34;;;;;;;14.98;4.90;;;;;;;10.75;100.00;101267.22;5009647;28;20283;-47
2022/06/21 03:58:59;;;;;;;18.08;5.13;;;;;;;10.78;100.00;101276.97;5010182;28;20208;-48
2022/06/21 04:01:28;;;;;;;21.73;5.40;;;;;;;10.87;100.00;101276.72;5010976;28;20177;-47
2022/06/21 04:04:08;;;;;;;20.48;5.32;;;;;;;10.82;100.00;101271.50;5009465;28;20208;-48
2022/06/21 04:06:55;;;;;;;25.00;5.55;;;;;;;10.83;100.00;101267.88;5010816;28;20207;-47
2022/06/21 04:09:38;;;;;;;20.48;5.25;;;;;;;10.89;100.00;101272.16;5010396;28;20192;-46
2022/06/21 04:12:12;;;;;;;17.77;5.60;;;;;;;11.00;100.00;101261.06;5010693;28;20655;-46
2022/06/21 04:14:48;;;;;;;27.70;5.43;;;;;;;11.03;100.00;101277.06;5009692;28;20178;-46
2022/06/21 04:17:23;;;;;;;16.40;5.35;;;;;;;11.05;100.00;101273.41;5010562;28;20180;-45
2022/06/21 04:19:55;;;;;;;16.95;4.90;;;;;;;11.13;100.00;101276.72;5009704;28;20188;-47
2022/06/21 04:22:24;;;;;;;25.30;5.10;;;;;;;11.09;100.00;101288.47;5009415;28;20176;-46
2022/06/21 04:24:52;;;;;;;19.85;4.75;;;;;;;11.20;100.00;101280.06;5009825;28;20328;-48
2022/06/21 04:27:33;;;;;;;21.25;5.28;;;;;;;11.20;100.00;101279.19;5010556;28;20678;-47
2022/06/21 04:30:01;;;;;;;24.50;5.25;;;;;;;11.24;100.00;101292.47;5010602;28;20191;-47
2022/06/21 04:32:39;;;;;;;20.83;4.57;;;;;;;11.20;100.00;101287.25;5010260;28;20196;-50
2022/06/21 04:35:28;;;;;;;17.83;4.70;;;;;;;11.25;100.00;101288.81;5009661;28;20307;-46
2022/06/21 04:37:58;;;;;;;16.73;4.93;;;;;;;11.25;100.00;101293.31;5010165;28;20592;-46
2022/06/21 04:40:32;;;;;;;16.75;4.80;;;;;;;11.37;100.00;101292.91;5010437;28;20279;-48
2022/06/21 04:43:04;;;;;;;19.20;4.97;;;;;;;11.44;100.00;101305.19;5009945;28;20177;-47
2022/06/21 04:45:49;;;;;;;17.02;4.50;;;;;;;11.46;100.00;101302.47;5009754;28;20212;-46
2022/06/21 04:48:44;;;;;;;23.85;4.85;;;;;;;11.55;100.00;101299.44;5009816;28;20671;-48
2022/06/21 04:51:45;;;;;;;21.55;5.00;;;;;;;11.57;100.00;101310.09;5010037;28;20180;-47
2022/06/21 04:54:20;;;;;;;19.60;4.88;;;;;;;11.67;100.00;101308.88;4949264;29;20551;-46
2022/06/21 04:57:03;;;;;;;17.52;4.30;;;;;;;11.72;100.00;101302.41;5000989;28;20220;-47
2022/06/21 04:59:37;;;;;;;16.13;4.57;;;;;;;11.84;100.00;101309.16;5010446;28;20650;-48
2022/06/21 05:02:04;;;;;;;15.00;3.75;;;;;;;11.93;100.00;101311.53;5013109;28;20192;-47
2022/06/21 05:04:39;;;;;;;17.80;4.53;;;;;;;12.06;100.00;101303.03;5009364;28;20200;-47
2022/06/21 05:07:15;;;;;;;17.00;4.57;;;;;;;11.98;100.00;101310.50;5009664;28;20737;-48
2022/06/21 05:09:42;;;;;;;19.25;4.00;;;;;;;12.20;100.00;101332.97;5010335;28;20173;-46
2022/06/21 05:12:25;;;;;;;11.68;3.67;;;;;;;12.26;100.00;101326.47;5010225;28;20699;-47
2022/06/21 05:15:05;;;;;;;17.52;4.00;;;;;;;12.33;100.00;101336.06;5009323;28;20177;-47
2022/06/21 05:17:34;;;;;;;20.88;4.07;;;;;;;12.31;100.00;101330.75;5010175;28;20184;-46
2022/06/21 05:20:03;;;;;;;14.40;3.70;;;;;;;12.54;100.00;101319.13;5009734;28;20702;-47
2022/06/21 05:22:35;;;;;;;12.30;4.20;;;;;;;12.55;100.00;101322.66;5009971;28;20250;-47
2022/06/21 05:25:27;;;;;;;10.73;3.35;;;;;;;12.60;100.00;101327.91;5008914;28;20228;-48
2022/06/21 05:28:01;;;;;;;15.90;3.75;;;;;;;12.75;100.00;101330.84;5009612;28;20696;-48
2022/06/21 05:30:36;;;;;;;12.93;3.53;;;;;;;12.87;100.00;101321.41;5009795;28;20286;-49
2022/06/21 05:33:07;;;;;;;14.95;3.35;;;;;;;12.95;100.00;101334.56;5007971;28;20647;-49
2022/06/21 05:35:35;;;;;;;11.43;3.47;;;;;;;12.92;100.00;101342.75;5009437;28;20231;-48
2022/06/21 05:38:15;;;;;;;13.75;3.60;;;;;;;12.89;100.00;101342.88;5009376;28;20276;-48
2022/06/21 05:40:54;;;;;;;12.52;3.33;;;;;;;12.93;100.00;101340.00;5008400;28;20280;-47
2022/06/21 05:43:45;;;;;;;14.32;3.35;;;;;;;12.95;100.00;101339.94;5007705;28;20180;-48
2022/06/21 05:46:23;;;;;;;16.33;3.80;;;;;;;12.91;100.00;101352.63;5011744;28;20208;-48
2022/06/21 05:48:54;;;;;;;18.98;3.65;;;;;;;12.93;100.00;101349.88;5008880;28;20267;-47
2022/06/21 05:51:25;;;;;;;13.98;3.85;;;;;;;13.01;99.97;101347.78;5009835;28;20652;-46
2022/06/21 05:53:54;;;;;;;16.80;3.85;;;;;;;12.88;99.35;101333.03;5007413;28;20621;-46
2022/06/21 05:56:23;;;;;;;11.63;3.17;;;;;;;13.01;98.73;101339.72;5008094;28;20510;-48
2022/06/21 05:59:03;;;;;;;11.13;3.33;;;;;;;13.10;98.28;101347.41;5009550;28;20275;-45
2022/06/21 06:01:39;;;;;;;9.05;3.28;;;;;;;13.28;97.87;101340.41;5013342;28;20231;-48
2022/06/21 06:04:07;;;;;;;9.10;3.13;;;;;;;13.33;97.48;101346.47;5012093;28;20215;-46
2022/06/21 06:06:36;;;;;;;10.55;3.25;;;;;;;13.40;97.07;101347.09;5013135;28;20632;-47
2022/06/21 06:09:21;;;;;;;14.27;3.70;;;;;;;13.51;96.34;101341.25;5008858;28;20235;-48
2022/06/21 06:12:03;;;;;;;13.15;4.13;;;;;;;13.73;95.33;101334.03;5009457;28;20276;-47
2022/06/21 06:14:32;;;;;;;10.52;3.15;;;;;;;13.66;94.68;101329.84;5012232;28;20267;-46
2022/06/21 06:17:00;;;;;;;10.93;3.35;;;;;;;13.82;94.49;101327.38;5012693;28;20287;-47
2022/06/21 06:19:41;;;;;;;8.80;3.10;;;;;;;13.90;94.13;101325.19;5012733;28;20171;-45
2022/06/21 06:22:06;;;;;;;12.85;3.80;;;;;;;14.25;93.03;101330.81;5013154;28;20223;-47
2022/06/21 06:24:41;;;;;;;12.90;3.28;;;;;;;14.20;91.21;101333.72;5012561;28;20208;-44
2022/06/21 06:27:23;;;;;;;13.32;3.20;;;;;;;14.66;91.08;101333.47;5012691;28;20218;-45
2022/06/21 06:29:51;;;;;;;9.50;3.00;;;;;;;14.97;89.44;101335.56;5012589;28;20192;-47
2022/06/21 06:32:17;;;;;;;6.97;2.85;;;;;;;15.18;87.96;101327.38;5012718;28;20173;-47
2022/06/21 06:34:46;;;;;;;8.93;3.33;;;;;;;15.25;86.73;101326.13;5012307;28;20241;-48
2022/06/21 06:37:25;;;;;;;8.55;2.47;;;;;;;15.27;86.53;101331.44;5012463;28;20211;-48
2022/06/21 06:39:52;;;;;;;10.25;3.22;;;;;;;15.15;86.10;101328.41;5012947;28;20264;-50
2022/06/21 06:42:26;;;;;;;7.22;2.72;;;;;;;15.69;85.54;101328.38;5012362;28;20652;-50
2022/06/21 06:45:09;;;;;;;10.93;3.88;;;;;;;15.91;82.53;101324.59;5011765;28;20211;-49
2022/06/21 06:47:37;;;;;;;9.48;4.03;;;;;;;15.48;82.49;101326.78;5012531;28;20541;-48
2022/06/21 06:50:12;;;;;;;7.15;3.17;;;;;;;15.50;83.91;101332.97;5012184;28;20185;-49
2022/06/21 06:52:46;;;;;;;6.68;2.35;;;;;;;15.79;82.94;101334.22;5012604;28;20179;-49
2022/06/21 06:55:15;;;;;;;8.23;3.20;;;;;;;15.92;82.63;101342.53;5011713;28;20200;-47
2022/06/21 06:57:46;;;;;;;9.00;2.53;;;;;;;16.29;81.10;101341.50;5007295;28;20191;-47
2022/06/21 07:00:17;;;;;;;10.30;2.85;;;;;;;16.41;81.64;101348.91;5006907;28;20192;-46
2022/06/21 07:02:48;;;;;;;7.65;2.40;;;;;;;16.61;78.73;101341.53;5009624;28;20644;-47
2022/06/21 07:05:36;;;;;;;5.78;2.13;;;;;;;16.91;78.52;101338.13;5006744;28;20215;-48
2022/06/21 07:08:34;;;;;;;6.30;2.22;;;;;;;16.98;76.65;101345.78;5011308;28;20181;-47
2022/06/21 07:11:04;;;;;;;12.95;2.75;;;;;;;16.92;75.97;101338.00;5000024;28;20243;-48
2022/06/21 07:13:31;;;;;;;8.05;2.72;;;;;;;16.95;76.59;101340.56;5011055;28;20216;-48
2022/06/21 07:16:05;;;;;;;10.55;2.95;;;;;;;17.11;76.49;101355.94;5012011;28;20204;-48
2022/06/21 07:18:37;;;;;;;9.93;2.65;;;;;;;16.80;75.92;101361.25;5011633;28;20564;-49
2022/06/21 07:21:02;;;;;;;7.07;2.38;;;;;;;17.18;76.60;101354.63;5012099;28;20641;-50
2022/06/21 07:23:29;;;;;;;7.20;2.17;;;;;;;17.40;76.26;101356.94;5011376;28;20188;-48
2022/06/21 07:26:26;;;;;;;8.60;2.50;;;;;;;17.38;75.33;101359.75;5011182;28;20196;-49
2022/06/21 07:29:04;;;;;;;8.35;2.45;;;;;;;17.80;74.74;101360.00;5011687;28;20235;-49
2022/06/21 07:31:35;;;;;;;7.90;2.30;;;;;;;18.03;73.98;101340.53;5010014;28;20180;-47
2022/06/21 07:34:10;;;;;;;9.70;2.70;;;;;;;17.87;73.35;101356.88;5011165;28;20164;-49
2022/06/21 07:36:58;;;;;;;9.07;2.30;;;;;;;17.71;73.51;101351.47;5010017;28;20196;-47
2022/06/21 07:39:55;;;;;;;7.82;2.35;;;;;;;17.49;75.61;101353.69;5011431;28;20192;-48
2022/06/21 07:42:30;;;;;;;7.93;2.67;;;;;;;17.22;76.54;101356.19;5011217;28;20541;-48
2022/06/21 07:45:05;;;;;;;8.02;2.53;;;;;;;16.61;77.54;101355.94;5010657;28;20200;-47
2022/06/21 07:47:41;;;;;;;6.10;2.60;;;;;;;17.12;75.90;101363.97;5006478;28;20239;-49
2022/06/21 07:50:14;;;;;;;6.43;2.20;;;;;;;17.77;73.86;101350.22;5003290;28;20243;-47
2022/06/21 07:52:51;;;;;;;5.60;1.90;;;;;;;17.70;73.00;101346.13;5010913;28;20188;-48
2022/06/21 07:55:27;;;;;;;5.60;2.28;;;;;;;17.74;71.89;101346.84;5010227;28;20262;-48
2022/06/21 07:57:59;;;;;;;5.30;2.20;;;;;;;17.78;72.33;101351.13;5011054;28;20249;-48
2022/06/21 08:06:40;;;;;;;7.68;2.60;;;;;;;17.99;73.49;101344.41;5010620;28;20172;-47
2022/06/21 08:08:52;;;;;;;7.45;2.30;;;;;;;18.85;70.25;101332.75;5011068;28;20250;-46
2022/06/21 08:11:36;;;;;;;7.15;2.05;;;;;;;19.19;69.56;101335.94;5011172;28;20169;-47
2022/06/21 08:14:02;;;;;;;8.70;2.60;;;;;;;19.20;68.84;101337.66;5009727;28;20180;-47
2022/06/21 08:16:35;;;;;;;7.00;2.47;;;;;;;19.07;69.00;101341.22;5010886;28;20672;-48
2022/06/21 08:19:06;;;;;;;8.68;2.22;;;;;;;19.21;69.73;101334.84;5009269;28;20183;-47
2022/06/21 08:21:38;;;;;;;4.38;2.30;;;;;;;19.29;68.42;101332.50;5007141;28;20645;-47
2022/06/21 08:24:12;;;;;;;7.57;2.40;;;;;;;19.42;67.82;101345.28;5009875;28;20193;-46
2022/06/21 08:26:57;;;;;;;6.57;2.70;;;;;;;19.26;68.28;101339.97;5010681;28;20204;-48
2022/06/21 08:29:31;;;;;;;7.15;2.17;;;;;;;19.48;66.82;101342.13;5010667;28;20364;-48
2022/06/21 08:32:07;;;;;;;8.00;2.22;;;;;;;19.53;66.48;101337.28;5010774;28;20738;-47
2022/06/21 08:34:50;;;;;;;6.30;2.35;;;;;;;19.87;65.13;101338.56;5008652;28;20212;-47
2022/06/21 08:37:33;;;;;;;5.95;2.20;;;;;;;20.23;65.59;101336.13;5010433;28;20624;-48
2022/06/21 08:40:27;;;;;;;5.28;2.10;;;;;;;20.01;65.32;101343.06;5010537;28;20179;-46
2022/06/21 08:43:10;;;;;;;8.18;1.90;;;;;;;19.77;66.74;101332.03;5009828;28;20519;-47
2022/06/21 08:45:41;;;;;;;8.13;2.50;;;;;;;20.01;67.92;101334.03;5010121;28;20235;-46
2022/06/21 08:48:19;;;;;;;3.70;2.20;;;;;;;20.14;64.43;101329.47;5010002;28;20177;-48
2022/06/21 08:51:05;;;;;;;6.72;1.98;;;;;;;20.53;62.86;101324.84;5009060;28;20180;-47
2022/06/21 08:53:31;;;;;;;3.60;1.50;;;;;;;20.46;63.07;101324.44;5009600;28;20180;-47
2022/06/21 08:56:02;;;;;;;3.97;1.67;;;;;;;20.17;63.83;101323.81;5010062;28;20555;-47
2022/06/21 08:58:53;;;;;;;8.35;1.92;;;;;;;20.14;62.10;101324.91;5010080;28;20168;-47
2022/06/21 09:01:22;;;;;;;5.63;1.95;;;;;;;20.02;63.52;101324.88;5009786;28;20179;-47
2022/06/21 09:04:05;;;;;;;5.22;1.85;;;;;;;20.10;64.09;101323.38;5009703;28;20196;-43
2022/06/21 09:06:37;;;;;;;4.72;2.35;;;;;;;19.98;63.62;101320.63;5010030;28;20696;-41
2022/06/21 09:09:24;;;;;;;19.00;5.63;;;;;;;19.46;66.40;101333.19;5010153;28;20631;-43
2022/06/21 09:12:11;;;;;;;8.95;4.15;;;;;;;19.85;63.55;101326.06;5010118;28;20279;-43
2022/06/21 09:15:18;;;;;;;6.65;2.22;;;;;;;20.47;63.61;101320.75;5009673;28;20540;-43
2022/06/21 09:18:06;;;;;;;7.05;2.80;;;;;;;20.20;63.81;101322.72;4986889;28;20188;-42
2022/06/21 09:21:05;;;;;;;4.10;2.10;;;;;;;19.73;63.77;101320.50;5010075;28;20173;-42
2022/06/21 09:23:37;;;;;;;6.00;1.92;;;;;;;19.93;65.08;101316.38;5009663;28;20175;-43
2022/06/21 09:26:11;;;;;;;4.55;1.92;;;;;;;20.35;65.26;101324.34;5008966;28;20200;-42
2022/06/21 09:28:41;;;;;;;3.03;1.40;;;;;;;20.69;62.62;101321.94;5010321;28;20168;-42
2022/06/21 09:31:26;;;;;;;4.57;1.90;;;;;;;21.23;61.39;101331.56;5008506;28;20173;-45
2022/06/21 09:34:00;;;;;;;5.43;1.88;;;;;;;20.99;62.11;101327.84;5010692;28;20261;-43
2022/06/21 09:36:34;;;;;;;5.18;1.92;;;;;;;20.93;62.56;101324.72;5013763;28;20246;-42
2022/06/21 09:39:30;;;;;;;4.97;1.60;;;;;;;21.08;62.47;101339.03;5014020;28;20209;-42
2022/06/21 09:42:06;;;;;;;4.30;2.05;;;;;;;21.07;60.90;101340.03;5014109;28;20279;-43
2022/06/21 09:44:43;;;;;;;7.93;1.95;;;;;;;20.78;60.44;101332.16;5013630;28;20194;-43
2022/06/21 09:47:33;;;;;;;5.32;1.85;;;;;;;20.94;60.59;101337.34;5013750;28;20200;-42
2022/06/21 09:50:13;;;;;;;4.65;1.75;;;;;;;20.51;60.95;101337.72;4993891;28;20600;-43
2022/06/21 09:52:48;;;;;;;3.45;1.70;;;;;;;20.79;60.45;101336.59;4992892;28;20178;-42
2022/06/21 09:56:08;;;;;;;4.40;1.80;;;;;;;21.17;60.78;101338.38;4993467;28;20215;-41
2022/06/21 09:58:46;;;;;;;3.95;2.00;;;;;;;21.55;57.76;101334.63;4917587;29;20194;-43
2022/06/21 10:01:26;;;;;;;5.80;1.65;;;;;;;21.18;58.55;101354.59;4993851;28;20165;-41
2022/06/21 10:04:32;;;;;;;5.13;1.90;;;;;;;20.86;59.04;101348.81;4993745;28;20185;-42
2022/06/21 10:07:19;;;;;;;5.55;1.50;;;;;;;21.21;59.39;101345.34;4993102;28;20259;-43
2022/06/21 10:09:57;;;;;;;5.93;1.50;;;;;;;21.17;58.84;101336.50;4993957;28;20184;-43
2022/06/21 10:13:03;;;;;;;5.63;1.65;;;;;;;21.79;56.25;101343.63;4993531;28;20662;-43
2022/06/21 10:15:34;;;;;;;4.28;1.40;;;;;;;21.58;57.08;101339.81;4993711;28;20208;-43
2022/06/21 10:18:18;;;;;;;4.47;1.85;;;;;;;21.50;58.81;101340.44;4993304;28;20173;-46
2022/06/21 10:20:57;;;;;;;3.40;1.60;;;;;;;21.72;57.49;101347.81;4993615;28;20264;-48
2022/06/21 10:23:41;;;;;;;4.03;1.60;;;;;;;21.43;57.33;101347.34;4993112;28;20263;-45
2022/06/21 10:26:12;;;;;;;7.10;2.03;;;;;;;20.60;60.29;101345.28;4993618;28;20330;-46
2022/06/21 10:28:40;;;;;;;4.82;1.80;;;;;;;20.94;59.66;101337.34;4993678;28;20253;-48
2022/06/21 10:31:38;;;;;;;11.52;1.88;;;;;;;20.87;60.97;101349.69;4993414;28;20651;-47
2022/06/21 10:34:34;;;;;;;6.30;1.83;;;;;;;21.54;59.74;101347.38;4993085;28;20664;-46
2022/06/21 10:37:09;;;;;;;5.25;1.92;;;;;;;22.05;60.22;101343.47;4993256;28;20196;-48
2022/06/21 10:39:49;;;;;;;5.53;2.03;;;;;;;21.77;60.38;101342.00;4993268;28;20261;-45
2022/06/21 10:42:47;;;;;;;5.07;1.65;;;;;;;21.58;58.66;101345.28;4992929;28;20165;-47
2022/06/21 10:45:37;;;;;;;8.60;1.98;;;;;;;21.47;61.47;101354.31;4992289;28;20217;-44
2022/06/21 10:48:28;;;;;;;6.75;2.20;;;;;;;21.24;59.82;101353.28;4992502;28;20217;-46
2022/06/21 10:51:20;;;;;;;7.25;1.92;;;;;;;21.55;59.77;101342.78;4993368;28;20181;-44
2022/06/21 10:54:16;;;;;;;6.38;2.00;;;;;;;22.14;59.21;101329.09;4992606;28;20173;-46
2022/06/21 10:57:09;;;;;;;6.88;2.08;;;;;;;21.64;60.46;101339.34;4992959;28;20201;-45
2022/06/21 11:02:59;;;;;;;6.85;1.75;;;;;;;21.24;59.43;101336.91;4991489;28;20212;-46
2022/06/21 11:05:45;;;;;;;6.15;2.00;;;;;;;21.61;58.97;101342.34;4992956;28;20251;-46
2022/06/21 11:08:16;;;;;;;4.90;1.60;;;;;;;21.38;60.59;101344.03;4992549;28;20177;-45
2022/06/21 11:11:13;;;;;;;4.60;1.52;;;;;;;21.11;59.76;101341.53;4992474;28;20192;-44
2022/06/21 11:13:59;;;;;;;9.77;2.10;;;;;;;20.76;60.85;101351.31;4967704;28;20197;-47
2022/06/21 11:16:36;;;;;;;5.10;1.80;;;;;;;19.69;62.12;101351.56;4962030;28;20558;-45
2022/06/21 11:19:09;;;;;;;7.03;2.08;;;;;;;19.62;63.56;101361.09;4992401;28;20197;-45
2022/06/21 11:22:05;;;;;;;8.05;2.15;;;;;;;20.16;62.84;101352.00;4992579;28;20184;-46
2022/06/21 11:24:37;;;;;;;6.93;1.80;;;;;;;20.49;62.12;101350.59;4991731;28;20197;-46
2022/06/21 11:27:15;;;;;;;7.03;2.00;;;;;;;20.50;61.41;101345.00;4992640;28;20268;-45
2022/06/21 11:29:57;;;;;;;13.98;2.10;;;;;;;20.39;63.08;101350.34;4991787;28;20184;-43
2022/06/21 11:32:34;;;;;;;6.32;1.92;;;;;;;20.92;59.79;101348.34;4992365;28;20660;-46
2022/06/21 11:35:25;;;;;;;5.90;1.70;;;;;;;21.03;60.12;101341.25;4990193;28;20191;-47
2022/06/21 11:38:05;;;;;;;8.90;2.10;;;;;;;20.85;61.42;101351.66;4992172;28;20606;-44
2022/06/21 11:40:46;;;;;;;4.65;1.90;;;;;;;21.23;60.20;101350.66;4990743;28;20176;-43
2022/06/21 11:43:27;;;;;;;6.15;2.30;;;;;;;21.49;59.56;101354.16;4991477;28;20169;-45
2022/06/21 11:46:15;;;;;;;4.60;2.00;;;;;;;20.36;61.18;101340.56;4992067;28;20356;-45
2022/06/21 11:48:59;;;;;;;5.32;2.00;;;;;;;20.85;61.38;101338.03;5003023;28;20577;-44
2022/06/21 11:51:46;;;;;;;4.95;2.05;;;;;;;21.31;59.33;101343.63;5011520;28;20156;-44
2022/06/21 11:54:21;;;;;;;7.50;2.58;;;;;;;20.73;60.76;101337.09;5010662;28;20242;-45
2022/06/21 11:57:21;;;;;;;8.20;1.80;;;;;;;21.18;59.86;101337.38;5010363;28;20184;-45
2022/06/21 12:00:05;;;;;;;5.57;2.00;;;;;;;21.40;59.95;101342.06;5010805;28;20161;-45
2022/06/21 12:02:48;;;;;;;5.22;2.25;;;;;;;21.27;59.35;101342.13;5011144;28;20553;-44
2022/06/21 12:05:37;;;;;;;4.00;1.60;;;;;;;21.83;55.41;101333.38;5010311;28;20208;-44
2022/06/21 12:08:19;;;;;;;5.20;1.40;;;;;;;21.44;55.32;101340.88;5009792;28;20168;-43
2022/06/21 12:10:54;;;;;;;5.25;1.63;;;;;;;21.64;56.30;101343.94;5011004;28;20203;-45
2022/06/21 12:13:26;;;;;;;5.40;1.90;;;;;;;21.84;56.46;101335.09;5010623;28;20184;-43